createdAt,value
2019-03-19T00:01:23.191Z,0.00
2019-03-19T00:11:23.280Z,0.00
2019-03-19T00:21:23.268Z,0.00
2019-03-19T00:31:23.231Z,0.00
2019-03-19T00:41:23.219Z,0.00
2019-03-19T00:51:23.279Z,0.00
2019-03-19T01:01:23.230Z,0.00
2019-03-19T01:11:23.191Z,0.06
2019-03-19T01:21:24.061Z,0.32
2019-03-19T01:31:23.204Z,0.05
2019-03-19T01:41:23.190Z,0.00
2019-03-19T01:51:23.283Z,0.01
2019-03-19T02:01:23.157Z,0.05
2019-03-19T02:11:23.221Z,0.00
2019-03-19T02:21:23.879Z,0.00
2019-03-19T02:31:23.207Z,0.00
2019-03-19T02:41:23.211Z,0.11
2019-03-19T02:51:23.159Z,0.00
2019-03-19T03:01:23.158Z,0.05
2019-03-19T03:11:23.133Z,0.13
2019-03-19T03:21:23.263Z,0.08
2019-03-19T03:31:23.350Z,0.13
2019-03-19T03:41:30.422Z,0.00
2019-03-19T03:51:23.174Z,0.00
2019-03-19T04:01:23.185Z,0.00
2019-03-19T04:11:23.184Z,0.00
2019-03-19T04:21:23.187Z,0.00
2019-03-19T04:31:23.256Z,0.00
2019-03-19T04:41:23.104Z,0.01
2019-03-19T04:51:23.196Z,0.12
2019-03-19T05:01:23.152Z,0.04
2019-03-19T05:11:23.095Z,0.00
2019-03-19T05:21:23.020Z,0.00
2019-03-19T05:31:23.510Z,0.03
2019-03-19T05:41:23.055Z,0.00
2019-03-19T05:51:23.099Z,0.00
2019-03-19T06:01:23.202Z,0.00
2019-03-19T06:11:23.220Z,0.00
2019-03-19T06:21:23.023Z,0.00
2019-03-19T06:31:23.104Z,0.00
2019-03-19T06:41:23.225Z,0.01
2019-03-19T06:51:23.233Z,0.04
2019-03-19T07:01:23.095Z,0.01
2019-03-19T07:11:24.471Z,0.04
2019-03-19T07:21:23.118Z,0.29
2019-03-19T07:31:30.824Z,0.37
2019-03-19T07:41:23.087Z,0.20
2019-03-19T07:51:24.155Z,0.77
2019-03-19T08:01:24.715Z,0.66
2019-03-19T08:11:24.169Z,0.94
2019-03-19T08:21:23.168Z,1.97
2019-03-19T08:31:23.073Z,1.40
2019-03-19T08:41:23.085Z,1.56
2019-03-19T08:51:25.650Z,1.19
2019-03-19T09:01:24.140Z,1.23
2019-03-19T09:11:24.744Z,1.49
2019-03-19T09:21:23.227Z,1.25
2019-03-19T09:31:23.179Z,0.93
2019-03-19T09:41:23.288Z,1.22
2019-03-19T09:51:23.140Z,1.01
2019-03-19T10:01:23.748Z,1.11
2019-03-19T10:11:23.193Z,0.90
2019-03-19T10:21:23.776Z,0.66
2019-03-19T10:31:23.824Z,0.74
2019-03-19T10:41:23.803Z,0.77
2019-03-19T10:51:23.206Z,0.84
2019-03-19T11:01:23.204Z,0.85
2019-03-19T11:11:23.480Z,1.86
2019-03-19T11:21:23.952Z,1.81
2019-03-19T11:31:23.970Z,0.97
2019-03-19T11:41:24.497Z,0.97
2019-03-19T11:51:23.165Z,0.86
2019-03-19T12:01:23.134Z,1.03
2019-03-19T12:11:23.213Z,0.74
2019-03-19T12:21:23.387Z,1.70
2019-03-19T12:31:23.160Z,0.59
2019-03-19T12:41:26.813Z,1.40
2019-03-19T12:51:25.048Z,1.45
2019-03-19T13:01:23.288Z,0.68
2019-03-19T13:11:23.448Z,0.75
2019-03-19T13:21:23.112Z,0.97
2019-03-19T13:31:24.191Z,0.53
2019-03-19T13:41:24.161Z,1.24
2019-03-19T13:51:25.041Z,0.46
2019-03-19T14:01:23.388Z,0.32
2019-03-19T14:11:23.194Z,0.59
2019-03-19T14:21:23.118Z,1.19
2019-03-19T14:31:23.211Z,1.15
2019-03-19T14:41:24.651Z,0.94
2019-03-19T14:51:23.195Z,0.69
2019-03-19T15:01:23.303Z,0.42
2019-03-19T15:21:43.524Z,0.39
2019-03-19T15:31:43.190Z,1.14
2019-03-19T15:41:44.312Z,0.44
2019-03-19T15:51:43.198Z,0.23
2019-03-19T16:01:43.731Z,0.35
2019-03-19T16:11:46.571Z,0.12
2019-03-19T16:21:43.222Z,0.59
2019-03-19T16:31:50.703Z,0.29
2019-03-19T16:41:44.013Z,0.19
2019-03-19T16:51:43.333Z,1.05
2019-03-19T17:01:43.175Z,0.42
2019-03-19T17:11:43.111Z,0.50
2019-03-19T17:21:44.501Z,0.36
2019-03-19T17:31:43.233Z,0.11
2019-03-19T17:41:44.413Z,0.04
2019-03-19T17:51:44.190Z,0.02
2019-03-19T18:01:43.989Z,0.16
2019-03-19T18:11:43.264Z,0.39
2019-03-19T18:21:43.235Z,0.55
2019-03-19T18:31:43.337Z,0.30
2019-03-19T18:41:43.157Z,0.02
2019-03-19T18:51:43.231Z,0.00
2019-03-19T19:01:43.257Z,0.01
2019-03-19T19:11:43.280Z,0.15
2019-03-19T19:21:43.170Z,0.01
2019-03-19T19:31:43.240Z,0.00
2019-03-19T19:41:43.197Z,0.00
2019-03-19T19:51:44.263Z,0.00
2019-03-19T20:01:43.152Z,0.00
2019-03-19T20:11:43.210Z,0.00
2019-03-19T20:21:43.202Z,0.00
2019-03-19T20:31:43.229Z,0.00
2019-03-19T20:41:50.825Z,0.00
2019-03-19T21:11:44.369Z,0.01
2019-03-19T21:21:44.456Z,0.01
2019-03-19T21:31:44.482Z,0.00
2019-03-19T21:41:44.441Z,0.00
2019-03-19T21:51:44.390Z,0.00
2019-03-19T22:01:44.487Z,0.00
2019-03-19T22:11:44.444Z,0.00
2019-03-19T22:21:44.419Z,0.00
2019-03-19T22:31:44.429Z,0.00
2019-03-19T22:41:44.453Z,0.00
2019-03-19T22:51:44.501Z,0.00
2019-03-19T23:01:44.384Z,0.00
2019-03-19T23:11:44.473Z,0.00
2019-03-19T23:21:44.459Z,0.00
2019-03-19T23:31:44.465Z,0.00
2019-03-19T23:41:44.347Z,0.00
2019-03-19T23:51:44.551Z,0.00
